Time;durP1;ratioP1;P1;durP2;ratioP2;P2;SDS_P1;SDS_P2;PMS_P1;PMS_P2;Temp;Humidity;BMP_temperature;BMP_pressure;BME280_temperature;BME280_humidity;BME280_pressure;Samples;Min_cycle;Max_cycle;Signal;HPM_P1;HPM_P2
2022/11/22 00:01:04;;;;;;;7.27;5.37;;;;;;;4.77;100.00;98032.72;5012614;28;20283;-68
2022/11/22 00:03:29;;;;;;;8.83;5.37;;;;;;;4.74;100.00;98031.19;5027899;28;20251;-68
2022/11/22 00:05:55;;;;;;;11.30;6.17;;;;;;;4.84;100.00;98033.97;5034931;28;20194;-67
2022/11/22 00:08:21;;;;;;;11.23;5.90;;;;;;;4.99;100.00;98030.41;5033960;28;20233;-65
2022/11/22 00:10:49;;;;;;;9.07;5.80;;;;;;;4.80;100.00;98030.81;5033953;28;20225;-66
2022/11/22 00:13:18;;;;;;;9.07;6.13;;;;;;;4.97;100.00;98019.53;5034299;28;20191;-66
2022/11/22 00:15:44;;;;;;;12.67;6.03;;;;;;;4.92;100.00;98008.00;5012018;28;20224;-63
2022/11/22 00:18:10;;;;;;;12.23;6.10;;;;;;;5.07;100.00;98001.88;5026813;28;20183;-67
2022/11/22 00:20:35;;;;;;;11.17;5.77;;;;;;;5.11;100.00;98003.34;5028930;28;20246;-64
2022/11/22 00:23:00;;;;;;;8.83;5.37;;;;;;;5.14;100.00;97992.94;5045874;28;20190;-63
2022/11/22 00:25:26;;;;;;;10.53;5.97;;;;;;;5.23;100.00;97999.16;5034451;28;20185;-64
2022/11/22 00:27:52;;;;;;;8.53;5.50;;;;;;;5.20;100.00;97993.44;5034435;28;20207;-63
2022/11/22 00:30:17;;;;;;;12.77;6.33;;;;;;;5.14;100.00;97985.28;4993734;28;20211;-64
2022/11/22 00:32:43;;;;;;;10.10;5.47;;;;;;;4.97;100.00;97981.31;5034641;28;20674;-63
2022/11/22 00:35:09;;;;;;;9.57;5.40;;;;;;;5.15;100.00;97976.72;5011931;28;20668;-63
2022/11/22 00:37:35;;;;;;;12.40;5.77;;;;;;;5.02;100.00;97978.44;5008684;28;20213;-64
2022/11/22 00:40:01;;;;;;;9.93;5.47;;;;;;;4.99;100.00;97978.66;5034540;28;20766;-64
2022/11/22 00:42:26;;;;;;;8.17;4.93;;;;;;;4.80;100.00;97976.47;5022505;28;20282;-65
2022/11/22 00:44:52;;;;;;;9.93;5.20;;;;;;;4.92;100.00;97980.78;5034455;28;20193;-64
2022/11/22 00:47:17;;;;;;;9.30;5.73;;;;;;;5.03;100.00;97981.81;5033528;28;20214;-64
2022/11/22 00:49:42;;;;;;;10.03;5.53;;;;;;;5.04;100.00;97981.72;5034226;28;20198;-64
2022/11/22 00:52:07;;;;;;;8.87;5.10;;;;;;;5.09;100.00;97981.41;5038831;28;20304;-66
2022/11/22 00:54:33;;;;;;;11.30;6.00;;;;;;;5.19;100.00;97986.72;5032916;28;20179;-63
2022/11/22 00:56:58;;;;;;;8.23;4.70;;;;;;;5.34;100.00;97983.94;5032290;28;20184;-63
2022/11/22 00:59:24;;;;;;;10.80;5.67;;;;;;;5.23;100.00;97995.78;5034017;28;20188;-63
2022/11/22 01:01:49;;;;;;;8.53;4.80;;;;;;;5.20;100.00;97986.63;5037641;28;20215;-63
2022/11/22 01:04:14;;;;;;;6.13;4.83;;;;;;;5.27;100.00;97987.00;5035411;28;20217;-64
2022/11/22 01:06:40;;;;;;;9.97;4.87;;;;;;;5.43;100.00;97994.47;5033606;28;20590;-64
2022/11/22 01:09:05;;;;;;;6.17;5.03;;;;;;;5.41;100.00;98004.78;5033393;28;20231;-65
2022/11/22 01:11:30;;;;;;;10.97;5.40;;;;;;;5.60;100.00;97988.22;5034286;28;20223;-63
2022/11/22 01:13:55;;;;;;;12.03;5.20;;;;;;;5.51;100.00;97987.13;5038278;28;20271;-64
2022/11/22 01:16:21;;;;;;;9.27;5.40;;;;;;;5.54;100.00;98004.75;5033418;28;20184;-64
2022/11/22 01:18:46;;;;;;;6.43;4.93;;;;;;;5.55;100.00;98003.84;5033965;28;20269;-63
2022/11/22 01:21:12;;;;;;;7.53;5.37;;;;;;;5.34;100.00;98001.78;5032625;28;20222;-63
2022/11/22 01:23:37;;;;;;;8.40;5.60;;;;;;;5.31;100.00;97999.47;5040053;28;20672;-63
2022/11/22 01:26:05;;;;;;;8.03;5.43;;;;;;;5.36;100.00;98000.88;5033502;28;20184;-64
2022/11/22 01:28:31;;;;;;;5.67;4.83;;;;;;;5.31;100.00;98009.66;5015564;28;20272;-63
2022/11/22 01:30:56;;;;;;;7.10;4.87;;;;;;;5.31;100.00;98017.31;5030742;28;20255;-63
2022/11/22 01:33:22;;;;;;;6.43;4.87;;;;;;;5.32;100.00;98024.03;5041886;28;20244;-64
2022/11/22 01:35:47;;;;;;;8.13;4.87;;;;;;;5.40;100.00;98020.97;5033765;28;20251;-63
2022/11/22 01:38:12;;;;;;;5.47;4.53;;;;;;;5.41;100.00;98030.25;5048021;28;20192;-64
2022/11/22 01:40:38;;;;;;;6.87;5.27;;;;;;;5.40;100.00;98032.94;5010134;28;20248;-63
2022/11/22 01:43:12;;;;;;;11.57;5.27;;;;;;;5.58;100.00;98036.81;5044285;28;20185;-63
2022/11/22 01:45:43;;;;;;;8.27;5.97;;;;;;;5.67;100.00;98030.25;5015549;28;20172;-63
2022/11/22 01:48:11;;;;;;;8.60;5.50;;;;;;;5.65;100.00;98030.34;5015001;28;20186;-63
2022/11/22 01:50:43;;;;;;;5.83;5.27;;;;;;;5.70;100.00;98021.59;5026954;28;20229;-64
2022/11/22 01:53:13;;;;;;;9.60;5.40;;;;;;;5.61;100.00;98034.03;5021817;28;20332;-63
2022/11/22 01:55:39;;;;;;;6.67;6.07;;;;;;;5.66;100.00;98028.63;5015079;28;20184;-64
2022/11/22 01:58:07;;;;;;;10.63;6.10;;;;;;;5.55;100.00;98028.53;5032499;28;20222;-63
2022/11/22 02:00:32;;;;;;;8.90;6.00;;;;;;;5.49;100.00;98028.03;5008614;28;20236;-63
2022/11/22 02:03:01;;;;;;;7.60;6.10;;;;;;;5.50;100.00;98044.13;5032155;28;20608;-63
2022/11/22 02:05:31;;;;;;;8.47;6.53;;;;;;;5.56;100.00;98046.28;5031682;28;20334;-63
2022/11/22 02:08:02;;;;;;;8.73;6.50;;;;;;;5.55;100.00;98056.59;5032261;28;20233;-64
2022/11/22 02:10:31;;;;;;;9.13;6.97;;;;;;;5.52;100.00;98049.97;5007170;28;20315;-64
2022/11/22 02:12:58;;;;;;;9.90;6.90;;;;;;;5.48;100.00;98049.34;5025904;28;20183;-64
2022/11/22 02:15:24;;;;;;;8.67;7.73;;;;;;;5.55;100.00;98047.19;5011924;28;20184;-64
2022/11/22 02:17:49;;;;;;;9.77;7.20;;;;;;;5.47;100.00;98050.25;5027733;28;20601;-64
2022/11/22 02:20:18;;;;;;;10.93;7.60;;;;;;;5.57;100.00;98049.63;5024356;28;20200;-65
2022/11/22 02:22:58;;;;;;;9.63;7.13;;;;;;;5.41;100.00;98048.13;5045598;28;20179;-64
2022/11/22 02:25:28;;;;;;;9.10;8.13;;;;;;;5.51;100.00;98050.88;5032850;28;20189;-64
2022/11/22 02:27:54;;;;;;;9.40;7.57;;;;;;;5.72;100.00;98040.97;5029696;28;20280;-64
2022/11/22 02:30:19;;;;;;;9.43;7.47;;;;;;;5.81;100.00;98039.53;5023757;28;20232;-64
2022/11/22 02:32:45;;;;;;;9.90;7.60;;;;;;;5.76;100.00;98042.38;5045751;28;20183;-63
2022/11/22 02:35:22;;;;;;;11.30;7.93;;;;;;;5.77;100.00;98049.13;5032882;28;20254;-62
2022/11/22 02:38:01;;;;;;;9.37;6.90;;;;;;;5.64;100.00;98066.16;5030568;28;20250;-62
2022/11/22 02:40:30;;;;;;;11.93;8.43;;;;;;;5.79;100.00;98077.06;5024859;28;20225;-62
2022/11/22 02:43:00;;;;;;;9.33;7.80;;;;;;;5.82;100.00;98075.13;5043640;28;20584;-65
2022/11/22 02:45:26;;;;;;;10.63;7.80;;;;;;;5.84;100.00;98076.78;5014400;28;20191;-63
2022/11/22 02:47:51;;;;;;;10.87;8.30;;;;;;;5.68;100.00;98071.88;5010648;28;20183;-62
2022/11/22 02:50:16;;;;;;;8.77;7.73;;;;;;;5.73;100.00;98067.28;5028904;28;20693;-62
2022/11/22 02:52:42;;;;;;;13.03;7.53;;;;;;;5.69;100.00;98058.22;5037480;28;20224;-63
2022/11/22 02:55:07;;;;;;;9.87;8.27;;;;;;;5.69;100.00;98053.09;5031992;28;20257;-62
2022/11/22 02:57:32;;;;;;;8.30;7.50;;;;;;;5.61;100.00;98056.97;5031631;28;20183;-63
2022/11/22 02:59:58;;;;;;;9.70;7.77;;;;;;;5.55;100.00;98066.78;5032225;28;20625;-62
2022/11/22 03:02:23;;;;;;;9.20;8.30;;;;;;;5.66;100.00;98072.78;5036618;28;20230;-62
2022/11/22 03:04:48;;;;;;;9.93;8.07;;;;;;;5.69;100.00;98071.75;5031823;28;20200;-62
2022/11/22 03:07:15;;;;;;;9.77;7.57;;;;;;;5.74;100.00;98074.00;5031815;28;20204;-62
2022/11/22 03:09:41;;;;;;;10.83;7.60;;;;;;;5.71;100.00;98079.34;5031698;28;20270;-62
2022/11/22 03:12:06;;;;;;;8.77;7.50;;;;;;;5.73;100.00;98077.47;5036628;28;20361;-62
2022/11/22 03:14:32;;;;;;;11.17;8.10;;;;;;;5.63;100.00;98078.09;5013920;28;20275;-62
2022/11/22 03:16:57;;;;;;;18.63;8.87;;;;;;;5.48;100.00;98081.66;5031506;28;20184;-62
2022/11/22 03:19:22;;;;;;;10.27;7.67;;;;;;;5.35;100.00;98086.75;5013921;28;20250;-62
2022/11/22 03:21:48;;;;;;;9.43;7.40;;;;;;;5.35;100.00;98091.84;5034951;28;20307;-62
2022/11/22 03:24:13;;;;;;;10.00;7.63;;;;;;;5.38;100.00;98093.38;5033276;28;20184;-63
2022/11/22 03:26:39;;;;;;;9.00;8.10;;;;;;;5.45;100.00;98081.88;5031020;28;20185;-63
2022/11/22 03:29:04;;;;;;;9.33;7.53;;;;;;;5.40;100.00;98092.38;5031707;28;20189;-63
2022/11/22 03:31:30;;;;;;;9.73;8.07;;;;;;;5.13;100.00;98100.88;5032824;28;20306;-63
2022/11/22 03:33:55;;;;;;;11.20;7.90;;;;;;;4.99;100.00;98104.31;5034039;28;20666;-64
2022/11/22 03:36:24;;;;;;;11.50;7.77;;;;;;;5.11;100.00;98107.00;5017850;28;20215;-63
2022/11/22 03:38:50;;;;;;;11.13;8.23;;;;;;;4.83;100.00;98119.75;5013641;28;20195;-63
2022/11/22 03:41:15;;;;;;;11.40;7.80;;;;;;;4.91;100.00;98118.47;5030155;28;20802;-64
2022/11/22 03:43:40;;;;;;;9.17;7.50;;;;;;;4.92;100.00;98118.34;5037822;28;20191;-63
2022/11/22 03:46:06;;;;;;;11.63;7.93;;;;;;;4.76;100.00;98120.25;5031565;28;20174;-63
2022/11/22 03:48:32;;;;;;;10.70;7.73;;;;;;;4.99;100.00;98121.34;5009279;28;20185;-63
2022/11/22 03:51:05;;;;;;;10.90;7.47;;;;;;;4.92;100.00;98120.09;5009380;28;20300;-62
2022/11/22 03:53:31;;;;;;;10.60;8.37;;;;;;;4.75;100.00;98113.50;5020105;28;20270;-64
2022/11/22 03:55:56;;;;;;;10.33;8.47;;;;;;;4.67;100.00;98117.34;5031219;28;20189;-63
2022/11/22 03:58:22;;;;;;;12.03;7.93;;;;;;;4.68;100.00;98118.97;5030648;28;20190;-63
2022/11/22 04:00:47;;;;;;;10.40;8.00;;;;;;;4.74;100.00;98109.31;5006554;28;20324;-62
2022/11/22 04:03:12;;;;;;;8.63;7.63;;;;;;;4.84;100.00;98112.94;5024046;28;20202;-62
2022/11/22 04:05:38;;;;;;;10.53;8.00;;;;;;;4.85;100.00;98114.59;5011899;28;20171;-62
2022/11/22 04:08:03;;;;;;;11.00;8.40;;;;;;;4.64;100.00;98121.81;5011087;28;20236;-65
2022/11/22 04:10:28;;;;;;;9.50;8.50;;;;;;;4.64;100.00;98115.00;5023691;28;20278;-63
2022/11/22 04:12:57;;;;;;;9.67;7.90;;;;;;;4.72;100.00;98123.91;5043391;28;20182;-63
2022/11/22 04:15:24;;;;;;;11.60;8.33;;;;;;;4.63;100.00;98118.44;5001160;28;20319;-63
2022/11/22 04:17:49;;;;;;;11.80;8.67;;;;;;;4.74;100.00;98122.06;5039503;28;20655;-62
2022/11/22 04:23:17;;;;;;;9.20;8.20;;;;;;;4.57;100.00;98116.28;5041306;28;20267;-62
2022/11/22 04:25:48;;;;;;;9.37;8.47;;;;;;;4.65;100.00;98111.53;5011217;28;20187;-63
2022/11/22 04:28:16;;;;;;;9.70;8.73;;;;;;;4.64;100.00;98109.91;5045825;28;20596;-63
2022/11/22 04:33:26;;;;;;;11.73;9.23;;;;;;;4.17;100.00;98109.34;5037124;28;20187;-63
2022/11/22 04:35:55;;;;;;;11.60;8.70;;;;;;;4.12;100.00;98121.53;5030744;28;20703;-62
2022/11/22 04:38:22;;;;;;;10.40;8.23;;;;;;;4.20;100.00;98127.00;5012581;28;20546;-63
2022/11/22 04:40:47;;;;;;;14.00;8.47;;;;;;;4.29;100.00;98124.78;5005327;28;20276;-63
2022/11/22 04:46:11;;;;;;;9.30;8.20;;;;;;;4.10;100.00;98135.25;4993072;28;20191;-62
2022/11/22 04:48:37;;;;;;;10.97;8.87;;;;;;;3.98;100.00;98131.69;5003798;28;20178;-62
2022/11/22 04:53:48;;;;;;;9.60;8.60;;;;;;;3.83;100.00;98133.41;5022554;28;20261;-63
2022/11/22 04:56:13;;;;;;;11.73;9.50;;;;;;;3.96;100.00;98139.44;5024770;28;20244;-64
2022/11/22 04:58:39;;;;;;;11.87;9.13;;;;;;;3.94;100.00;98148.88;5033949;28;20182;-63
2022/11/22 05:01:04;;;;;;;10.17;8.53;;;;;;;3.92;100.00;98154.97;5032130;28;20299;-62
2022/11/22 05:03:30;;;;;;;8.87;7.97;;;;;;;3.69;100.00;98152.03;5031595;28;20202;-63
2022/11/22 05:05:55;;;;;;;10.87;8.47;;;;;;;3.86;100.00;98156.94;5034086;28;20301;-63
2022/11/22 05:08:21;;;;;;;9.87;8.73;;;;;;;3.81;100.00;98156.41;5033377;28;20257;-64
2022/11/22 05:10:57;;;;;;;11.40;8.83;;;;;;;3.90;100.00;98156.78;5038391;28;20721;-62
2022/11/22 05:13:36;;;;;;;12.80;8.20;;;;;;;3.73;100.00;98153.47;5029115;28;20193;-62
2022/11/22 05:16:04;;;;;;;9.90;6.43;;;;;;;3.80;100.00;98148.88;5034073;28;20181;-62
2022/11/22 05:18:30;;;;;;;11.03;6.70;;;;;;;3.87;100.00;98153.50;5030091;28;20181;-61
2022/11/22 05:20:56;;;;;;;14.77;6.00;;;;;;;3.94;100.00;98155.69;5030147;28;20237;-63
2022/11/22 05:26:07;;;;;;;17.27;4.47;;;;;;;3.98;100.00;98150.34;5033628;28;20205;-63
2022/11/22 05:28:34;;;;;;;13.80;4.13;;;;;;;4.07;100.00;98160.88;5033054;28;20205;-62
2022/11/22 05:31:11;;;;;;;16.13;4.03;;;;;;;4.17;100.00;98165.34;5013226;28;20982;-62
2022/11/22 05:33:38;;;;;;;16.53;3.83;;;;;;;4.33;100.00;98174.63;5030321;28;20261;-62
2022/11/22 05:36:04;;;;;;;20.43;3.60;;;;;;;4.39;100.00;98171.72;5032182;28;20272;-63
2022/11/22 05:38:30;;;;;;;16.90;4.03;;;;;;;4.49;100.00;98187.22;5048596;28;20531;-64
2022/11/22 05:40:55;;;;;;;22.40;5.33;;;;;;;4.60;100.00;98189.97;5009405;28;20225;-63
2022/11/22 05:43:20;;;;;;;17.40;4.50;;;;;;;4.69;100.00;98191.13;5031300;28;20203;-63
2022/11/22 05:45:46;;;;;;;25.53;4.40;;;;;;;4.67;100.00;98196.28;5033076;28;20186;-62
2022/11/22 05:48:11;;;;;;;22.93;4.33;;;;;;;4.80;100.00;98198.09;5032581;28;20243;-63
2022/11/22 05:50:36;;;;;;;16.30;3.80;;;;;;;4.75;100.00;98195.84;5026794;28;20222;-62
2022/11/22 05:53:02;;;;;;;15.73;4.00;;;;;;;4.74;100.00;98189.13;5044281;28;20195;-62
2022/11/22 05:55:28;;;;;;;10.37;4.50;;;;;;;4.88;100.00;98193.34;5032820;28;20184;-62
2022/11/22 05:57:54;;;;;;;17.87;5.33;;;;;;;4.80;100.00;98193.84;5011352;28;20180;-62
2022/11/22 06:00:19;;;;;;;16.00;4.90;;;;;;;5.01;100.00;98199.34;5012688;28;20237;-63
2022/11/22 06:02:45;;;;;;;20.13;4.60;;;;;;;5.07;100.00;98200.66;5034400;28;20255;-65
2022/11/22 06:05:10;;;;;;;16.23;4.43;;;;;;;5.04;100.00;98205.97;5032818;28;20244;-64
2022/11/22 06:07:35;;;;;;;20.27;4.43;;;;;;;5.03;100.00;98204.31;5032099;28;20648;-63
2022/11/22 06:10:01;;;;;;;15.97;4.43;;;;;;;5.08;100.00;98204.03;5033155;28;20634;-63
2022/11/22 06:12:26;;;;;;;24.20;4.67;;;;;;;4.97;100.00;98197.06;5037709;28;20314;-63
2022/11/22 06:14:51;;;;;;;17.93;3.87;;;;;;;5.02;100.00;98202.69;5032700;28;20233;-63
2022/11/22 06:17:16;;;;;;;16.07;3.70;;;;;;;4.98;100.00;98204.59;5032128;28;20585;-63
2022/11/22 06:19:42;;;;;;;15.20;3.93;;;;;;;4.87;100.00;98219.75;5032450;28;20555;-63
2022/11/22 06:22:09;;;;;;;14.50;3.50;;;;;;;4.98;100.00;98225.00;5037187;28;20229;-63
2022/11/22 06:24:34;;;;;;;17.53;3.77;;;;;;;5.11;100.00;98231.88;5032771;28;20187;-63
2022/11/22 06:27:00;;;;;;;22.53;4.43;;;;;;;5.12;100.00;98236.06;5014013;28;20180;-61
2022/11/22 06:29:25;;;;;;;15.97;4.07;;;;;;;5.17;100.00;98239.97;5032263;28;20646;-63
2022/11/22 06:31:50;;;;;;;20.00;4.03;;;;;;;5.23;100.00;98236.22;5036057;28;20224;-63
2022/11/22 06:34:16;;;;;;;15.43;3.80;;;;;;;5.14;100.00;98245.25;5015804;28;20180;-64
2022/11/22 06:36:41;;;;;;;26.07;4.27;;;;;;;5.31;100.00;98246.75;5031873;28;20178;-63
2022/11/22 06:39:07;;;;;;;17.43;4.17;;;;;;;5.31;100.00;98245.94;5009821;28;20178;-62
2022/11/22 06:41:35;;;;;;;22.90;4.43;;;;;;;5.28;100.00;98238.47;5019731;28;20220;-62
2022/11/22 06:44:05;;;;;;;12.83;3.90;;;;;;;5.30;100.00;98252.75;5014246;28;20191;-63
2022/11/22 06:46:30;;;;;;;16.33;4.23;;;;;;;5.20;100.00;98253.44;5013862;28;20179;-64
2022/11/22 06:48:55;;;;;;;17.27;4.67;;;;;;;5.40;100.00;98260.66;5031653;28;20596;-63
2022/11/22 06:51:23;;;;;;;18.30;3.90;;;;;;;5.38;100.00;98257.38;5031496;28;20266;-63
2022/11/22 06:53:50;;;;;;;14.67;3.93;;;;;;;5.44;100.00;98259.53;5036613;28;20268;-63
2022/11/22 06:56:23;;;;;;;25.33;4.53;;;;;;;5.37;100.00;98271.06;5013518;28;20195;-68
2022/11/22 06:58:50;;;;;;;13.17;3.67;;;;;;;5.54;100.00;98277.63;5030453;28;20625;-63
2022/11/22 07:01:24;;;;;;;15.03;4.47;;;;;;;5.50;100.00;98282.09;5013460;28;20240;-64
2022/11/22 07:03:50;;;;;;;17.47;4.03;;;;;;;5.39;100.00;98279.41;5016153;28;20222;-62
2022/11/22 07:06:18;;;;;;;12.03;4.37;;;;;;;5.60;100.00;98279.00;5006304;28;20405;-63
2022/11/22 07:08:44;;;;;;;17.03;4.50;;;;;;;5.58;100.00;98276.56;5045833;28;20214;-63
2022/11/22 07:11:12;;;;;;;14.20;3.60;;;;;;;5.59;100.00;98290.09;5012830;28;20238;-63
2022/11/22 07:13:38;;;;;;;11.33;4.03;;;;;;;5.75;100.00;98284.84;5035899;28;20249;-64
2022/11/22 07:16:05;;;;;;;18.73;4.13;;;;;;;5.60;100.00;98294.31;5031271;28;20189;-64
2022/11/22 07:18:33;;;;;;;13.63;3.63;;;;;;;5.73;100.00;98291.78;5029526;28;20728;-64
2022/11/22 07:21:03;;;;;;;9.07;3.27;;;;;;;5.78;100.00;98295.69;5010145;28;20238;-63
2022/11/22 07:23:29;;;;;;;17.17;3.30;;;;;;;5.92;100.00;98289.69;5035093;28;20284;-64
2022/11/22 07:25:55;;;;;;;17.47;3.40;;;;;;;5.86;100.00;98289.28;5031139;28;20281;-63
2022/11/22 07:28:20;;;;;;;13.37;3.13;;;;;;;5.99;100.00;98292.69;5030603;28;20616;-66
2022/11/22 07:30:46;;;;;;;12.87;3.43;;;;;;;6.06;100.00;98299.03;5008555;28;20244;-63
2022/11/22 07:33:11;;;;;;;10.07;3.30;;;;;;;6.21;100.00;98299.78;5039983;28;20258;-64
2022/11/22 07:35:36;;;;;;;10.27;3.30;;;;;;;6.21;100.00;98296.41;5031013;28;20192;-63
2022/11/22 07:38:02;;;;;;;12.57;3.43;;;;;;;6.14;100.00;98298.56;5017659;28;20231;-66
2022/11/22 07:40:28;;;;;;;13.13;3.60;;;;;;;6.16;100.00;98301.81;5022021;28;20588;-67
2022/11/22 07:42:53;;;;;;;11.40;3.20;;;;;;;6.27;100.00;98313.88;5030936;28;20187;-66
2022/11/22 07:45:19;;;;;;;9.97;4.10;;;;;;;6.27;100.00;98309.59;5013429;28;20223;-65
2022/11/22 07:47:44;;;;;;;14.47;4.07;;;;;;;6.37;100.00;98303.88;5029232;28;20184;-64
2022/11/22 07:50:10;;;;;;;8.93;3.03;;;;;;;6.42;100.00;98315.41;5021467;28;20712;-63
2022/11/22 07:52:35;;;;;;;11.93;4.20;;;;;;;6.41;100.00;98312.97;5028807;28;20599;-66
2022/11/22 07:55:01;;;;;;;16.27;3.70;;;;;;;6.45;100.00;98312.69;5044753;28;20196;-65
2022/11/22 07:57:26;;;;;;;7.37;2.93;;;;;;;6.45;100.00;98320.34;5030125;28;20174;-63
2022/11/22 07:59:51;;;;;;;9.97;3.00;;;;;;;6.27;100.00;98324.09;5030963;28;20208;-62
2022/11/22 08:02:16;;;;;;;9.17;2.93;;;;;;;6.30;100.00;98336.66;5008664;28;20607;-62
2022/11/22 08:04:42;;;;;;;8.33;2.63;;;;;;;6.30;100.00;98334.94;5016839;28;20200;-62
2022/11/22 08:07:08;;;;;;;12.50;2.63;;;;;;;6.25;100.00;98339.53;5030540;28;20204;-62
2022/11/22 08:09:34;;;;;;;7.83;2.40;;;;;;;6.32;100.00;98339.13;5012863;28;20182;-62
2022/11/22 08:11:59;;;;;;;8.70;2.40;;;;;;;6.59;100.00;98342.41;5016446;28;20234;-62
2022/11/22 08:14:25;;;;;;;10.07;2.80;;;;;;;6.79;100.00;98347.94;5030889;28;20597;-63
2022/11/22 08:16:51;;;;;;;8.87;3.10;;;;;;;6.86;100.00;98351.72;5014032;28;20253;-62
2022/11/22 08:19:16;;;;;;;9.00;2.30;;;;;;;6.98;100.00;98344.13;5032516;28;20261;-62
2022/11/22 08:21:43;;;;;;;7.63;2.50;;;;;;;6.99;100.00;98341.47;5036104;28;20238;-62
2022/11/22 08:24:09;;;;;;;10.87;2.47;;;;;;;7.15;100.00;98348.13;5036494;28;20186;-62
2022/11/22 08:26:34;;;;;;;7.60;2.20;;;;;;;7.20;100.00;98349.41;5033932;28;20186;-63
2022/11/22 08:29:02;;;;;;;16.57;2.67;;;;;;;7.35;100.00;98349.28;5034376;28;20271;-61
2022/11/22 08:31:27;;;;;;;9.97;2.70;;;;;;;7.21;100.00;98345.94;4999473;28;20225;-60
2022/11/22 08:33:53;;;;;;;10.33;2.63;;;;;;;7.34;100.00;98351.00;5025286;28;20182;-61
2022/11/22 08:36:18;;;;;;;10.77;3.30;;;;;;;7.08;100.00;98345.13;5031423;28;20193;-63
2022/11/22 08:38:43;;;;;;;9.87;2.83;;;;;;;6.77;100.00;98349.75;5027867;28;20197;-61
2022/11/22 08:41:09;;;;;;;12.57;3.13;;;;;;;6.88;100.00;98356.72;5031105;28;20328;-62
2022/11/22 08:43:35;;;;;;;9.60;2.80;;;;;;;7.18;100.00;98355.56;5040492;28;20189;-63
2022/11/22 08:46:00;;;;;;;9.23;2.60;;;;;;;6.73;100.00;98351.69;5034237;28;20224;-64
2022/11/22 08:48:27;;;;;;;7.50;2.67;;;;;;;6.50;100.00;98358.34;5034065;28;20182;-63
2022/11/22 08:50:55;;;;;;;6.90;2.00;;;;;;;6.37;100.00;98353.22;5029137;28;20235;-62
2022/11/22 08:53:21;;;;;;;12.60;3.00;;;;;;;6.70;100.00;98351.09;5025578;28;20549;-62
2022/11/22 08:55:46;;;;;;;12.77;3.00;;;;;;;6.81;100.00;98351.22;5015952;28;20240;-64
2022/11/22 08:58:12;;;;;;;6.27;1.90;;;;;;;6.94;100.00;98358.88;5033930;28;20258;-63
2022/11/22 09:00:37;;;;;;;5.70;2.30;;;;;;;6.88;100.00;98367.75;5028574;28;20229;-63
2022/11/22 09:03:02;;;;;;;5.73;2.13;;;;;;;7.01;100.00;98372.03;5039748;28;20244;-63
2022/11/22 09:05:30;;;;;;;10.70;2.50;;;;;;;7.09;100.00;98380.03;5033853;28;20173;-63
2022/11/22 09:07:55;;;;;;;8.03;2.30;;;;;;;7.35;100.00;98388.47;5015221;28;20244;-66
2022/11/22 09:10:20;;;;;;;6.67;2.53;;;;;;;7.66;100.00;98388.09;5025221;28;20208;-63
2022/11/22 09:12:46;;;;;;;5.17;2.63;;;;;;;7.98;100.00;98374.78;5046894;28;20186;-63
2022/11/22 09:15:11;;;;;;;7.83;2.13;;;;;;;7.96;100.00;98374.06;5033689;28;20261;-63
2022/11/22 09:17:37;;;;;;;4.83;2.40;;;;;;;7.74;100.00;98378.16;5033296;28;20178;-65
2022/11/22 09:20:04;;;;;;;7.67;2.40;;;;;;;7.72;100.00;98377.44;5032594;28;20261;-66
2022/11/22 09:22:30;;;;;;;4.50;1.97;;;;;;;7.42;100.00;98381.19;5021947;28;20254;-62
2022/11/22 09:24:56;;;;;;;8.70;1.93;;;;;;;7.58;100.00;98379.19;5031984;28;20190;-64
2022/11/22 09:27:21;;;;;;;5.07;2.30;;;;;;;7.50;100.00;98384.03;5033116;28;20186;-65
2022/11/22 09:29:46;;;;;;;8.70;2.53;;;;;;;7.78;100.00;98378.72;5033529;28;20232;-64
2022/11/22 09:32:11;;;;;;;10.67;2.90;;;;;;;8.21;100.00;98378.22;5037502;28;20225;-63
2022/11/22 09:34:37;;;;;;;9.23;2.57;;;;;;;8.05;100.00;98374.22;5039393;28;20179;-63
2022/11/22 09:37:02;;;;;;;6.93;2.30;;;;;;;7.51;100.00;98374.63;5029842;28;20182;-63
2022/11/22 09:39:27;;;;;;;8.33;2.67;;;;;;;7.49;100.00;98379.03;5033147;28;20264;-65
2022/11/22 09:42:29;;;;;;;6.03;2.20;;;;;;;7.53;100.00;98365.91;5036757;28;20308;-63
2022/11/22 09:45:21;;;;;;;7.03;2.50;;;;;;;7.41;100.00;98361.66;5032847;28;20190;-64
2022/11/22 09:48:11;;;;;;;6.53;2.53;;;;;;;7.67;100.00;98359.03;5047475;28;20182;-65
2022/11/22 09:50:58;;;;;;;11.17;2.20;;;;;;;7.33;100.00;98353.69;5027010;28;20312;-65
2022/11/22 09:53:35;;;;;;;5.93;1.90;;;;;;;7.38;100.00;98355.00;5030328;28;20180;-64
2022/11/22 09:56:10;;;;;;;10.83;2.37;;;;;;;7.30;100.00;98359.03;5031773;28;20260;-65
2022/11/22 09:58:41;;;;;;;10.23;2.17;;;;;;;7.10;100.00;98350.97;5032624;28;20189;-65
2022/11/22 10:01:26;;;;;;;6.63;2.10;;;;;;;7.22;100.00;98349.34;5029975;28;20241;-63
2022/11/22 10:04:00;;;;;;;11.67;2.53;;;;;;;7.08;100.00;98345.97;5019932;28;20292;-64
2022/11/22 10:06:42;;;;;;;6.33;2.20;;;;;;;7.11;100.00;98337.28;5047432;28;20197;-65
2022/11/22 10:09:29;;;;;;;9.80;2.57;;;;;;;7.06;100.00;98329.09;5000343;28;20235;-63
2022/11/22 10:12:18;;;;;;;7.37;2.07;;;;;;;7.20;100.00;98334.06;5034504;28;20266;-64
2022/11/22 10:15:01;;;;;;;10.43;2.80;;;;;;;7.46;100.00;98339.13;5014807;28;20280;-63
2022/11/22 10:17:35;;;;;;;9.33;2.77;;;;;;;7.70;100.00;98339.16;5014221;28;20656;-65
2022/11/22 10:20:24;;;;;;;7.73;2.70;;;;;;;7.72;100.00;98339.03;5032815;28;20277;-64
2022/11/22 10:22:50;;;;;;;7.70;2.57;;;;;;;7.46;100.00;98348.56;5004389;28;20318;-64
2022/11/22 10:25:28;;;;;;;8.30;1.90;;;;;;;7.40;100.00;98347.22;4999052;28;20205;-64
2022/11/22 10:28:09;;;;;;;12.43;3.23;;;;;;;7.27;100.00;98345.50;5027850;28;20193;-64
2022/11/22 10:30:40;;;;;;;7.53;2.23;;;;;;;7.35;100.00;98337.31;5020693;28;20226;-64
2022/11/22 10:33:21;;;;;;;8.40;2.73;;;;;;;7.43;100.00;98332.47;5029725;28;20569;-63
2022/11/22 10:35:58;;;;;;;8.23;2.23;;;;;;;7.51;100.00;98328.56;5022586;28;20205;-63
2022/11/22 10:38:46;;;;;;;7.43;2.03;;;;;;;7.54;100.00;98325.78;5030010;28;20348;-63
2022/11/22 10:41:41;;;;;;;8.07;2.17;;;;;;;7.88;100.00;98324.22;5014190;28;20229;-63
2022/11/22 10:44:37;;;;;;;7.50;2.67;;;;;;;7.71;100.00;98319.47;5031460;28;20546;-63
2022/11/22 10:47:08;;;;;;;6.10;1.60;;;;;;;7.62;100.00;98313.28;5031535;28;20257;-63
2022/11/22 10:49:59;;;;;;;8.33;2.73;;;;;;;7.60;100.00;98317.69;5031959;28;20213;-63
2022/11/22 10:52:43;;;;;;;4.70;2.03;;;;;;;7.93;100.00;98315.41;5016520;28;20222;-62
2022/11/22 10:55:15;;;;;;;16.63;3.03;;;;;;;7.83;100.00;98316.03;5020797;28;20190;-62
2022/11/22 10:57:45;;;;;;;6.30;2.13;;;;;;;7.88;100.00;98321.66;5024186;28;20190;-64
2022/11/22 11:00:26;;;;;;;9.37;2.40;;;;;;;7.69;100.00;98314.47;5020993;28;20638;-61
2022/11/22 11:03:14;;;;;;;7.33;2.20;;;;;;;7.88;100.00;98311.41;5011994;28;20671;-64
2022/11/22 11:05:46;;;;;;;8.83;2.10;;;;;;;7.75;100.00;98326.84;5031641;28;20244;-62
2022/11/22 11:08:24;;;;;;;9.73;1.73;;;;;;;7.45;100.00;98317.03;5009785;28;20261;-62
2022/11/22 11:10:49;;;;;;;6.47;1.97;;;;;;;7.49;100.00;98315.06;4995805;28;20302;-62
2022/11/22 11:13:26;;;;;;;7.83;1.87;;;;;;;7.73;100.00;98320.19;5025716;28;20669;-63
2022/11/22 11:15:55;;;;;;;6.80;1.57;;;;;;;7.89;100.00;98312.25;5025791;28;20213;-61
2022/11/22 11:18:53;;;;;;;7.73;2.13;;;;;;;7.79;100.00;98314.66;5009774;28;20185;-61
2022/11/22 11:21:18;;;;;;;5.43;2.47;;;;;;;7.88;100.00;98320.84;4947516;28;20227;-68
2022/11/22 11:23:43;;;;;;;9.40;2.20;;;;;;;8.06;100.00;98323.81;5008564;28;20185;-61
2022/11/22 11:26:23;;;;;;;7.50;2.10;;;;;;;7.93;100.00;98323.88;5011414;28;20186;-60
2022/11/22 11:28:48;;;;;;;6.43;1.73;;;;;;;7.75;100.00;98321.72;4992012;28;20175;-61
2022/11/22 11:31:17;;;;;;;6.03;1.80;;;;;;;7.70;100.00;98316.13;5010384;28;20256;-61
2022/11/22 11:33:43;;;;;;;4.40;1.50;;;;;;;7.70;100.00;98317.84;5012950;28;20645;-61
2022/11/22 11:36:20;;;;;;;8.00;1.80;;;;;;;7.42;100.00;98312.94;5013169;28;20189;-63
2022/11/22 11:38:56;;;;;;;4.73;1.60;;;;;;;7.67;100.00;98306.09;5013373;28;20189;-64
2022/11/22 11:41:27;;;;;;;6.73;1.80;;;;;;;7.72;100.00;98306.56;5014076;28;20319;-62
2022/11/22 11:43:55;;;;;;;7.93;2.00;;;;;;;7.94;100.00;98317.84;5030414;28;20201;-62
2022/11/22 11:46:23;;;;;;;4.90;1.40;;;;;;;7.83;100.00;98312.69;5012777;28;20294;-63
2022/11/22 11:48:50;;;;;;;5.83;1.40;;;;;;;7.65;100.00;98302.00;5013125;28;20584;-63